sensor_id;sensor_type;location;lat;lon;timestamp;pressure;altitude;pressure_sealevel;temperature;humidity
82249;BME280;71851;49.092;18.918;2024-02-26T00:02:44;96342.66;;;6.63;79.88
82249;BME280;71851;49.092;18.918;2024-02-26T00:05:45;96332.94;;;6.57;79.59
82249;BME280;71851;49.092;18.918;2024-02-26T00:08:45;96344.25;;;6.50;79.39
82249;BME280;71851;49.092;18.918;2024-02-26T00:11:46;96345.16;;;6.42;79.53
82249;BME280;71851;49.092;18.918;2024-02-26T00:14:46;96350.56;;;6.41;79.49
82249;BME280;71851;49.092;18.918;2024-02-26T00:17:48;96354.06;;;6.33;79.29
82249;BME280;71851;49.092;18.918;2024-02-26T00:20:48;96350.63;;;6.33;79.39
82249;BME280;71851;49.092;18.918;2024-02-26T00:23:49;96361.69;;;6.35;79.41
82249;BME280;71851;49.092;18.918;2024-02-26T00:26:51;96354.13;;;6.40;78.98
82249;BME280;71851;49.092;18.918;2024-02-26T00:29:54;96353.09;;;6.49;78.07
82249;BME280;71851;49.092;18.918;2024-02-26T00:32:55;96352.19;;;6.56;77.49
82249;BME280;71851;49.092;18.918;2024-02-26T00:35:55;96348.16;;;6.68;77.63
82249;BME280;71851;49.092;18.918;2024-02-26T00:38:55;96348.78;;;6.85;76.92
82249;BME280;71851;49.092;18.918;2024-02-26T00:41:56;96345.06;;;7.09;75.80
82249;BME280;71851;49.092;18.918;2024-02-26T00:44:57;96355.69;;;7.07;75.23
82249;BME280;71851;49.092;18.918;2024-02-26T00:47:58;96340.28;;;7.12;74.65
82249;BME280;71851;49.092;18.918;2024-02-26T00:51:01;96343.00;;;7.04;74.94
82249;BME280;71851;49.092;18.918;2024-02-26T00:54:02;96336.09;;;7.11;74.56
82249;BME280;71851;49.092;18.918;2024-02-26T00:57:03;96331.84;;;6.96;75.83
82249;BME280;71851;49.092;18.918;2024-02-26T01:00:04;96332.31;;;6.84;77.05
82249;BME280;71851;49.092;18.918;2024-02-26T01:03:05;96328.91;;;6.40;79.39
82249;BME280;71851;49.092;18.918;2024-02-26T01:06:05;96328.19;;;6.46;77.75
82249;BME280;71851;49.092;18.918;2024-02-26T01:09:06;96317.22;;;6.80;77.48
82249;BME280;71851;49.092;18.918;2024-02-26T01:12:06;96324.59;;;6.91;76.12
82249;BME280;71851;49.092;18.918;2024-02-26T01:15:07;96331.88;;;6.81;76.88
82249;BME280;71851;49.092;18.918;2024-02-26T01:18:08;96322.72;;;6.70;77.23
82249;BME280;71851;49.092;18.918;2024-02-26T01:21:10;96331.78;;;6.74;76.82
82249;BME280;71851;49.092;18.918;2024-02-26T01:24:11;96331.06;;;6.66;77.10
82249;BME280;71851;49.092;18.918;2024-02-26T01:27:11;96344.19;;;6.87;76.36
82249;BME280;71851;49.092;18.918;2024-02-26T01:30:12;96329.81;;;6.91;76.52
82249;BME280;71851;49.092;18.918;2024-02-26T01:33:14;96331.50;;;6.99;76.05
82249;BME280;71851;49.092;18.918;2024-02-26T01:36:15;96339.78;;;6.87;76.35
82249;BME280;71851;49.092;18.918;2024-02-26T01:39:15;96339.59;;;6.74;77.07
82249;BME280;71851;49.092;18.918;2024-02-26T01:42:16;96329.28;;;6.66;77.50
82249;BME280;71851;49.092;18.918;2024-02-26T01:45:16;96331.88;;;6.66;77.37
82249;BME280;71851;49.092;18.918;2024-02-26T01:48:24;96337.38;;;6.57;77.90
82249;BME280;71851;49.092;18.918;2024-02-26T01:51:26;96340.78;;;6.43;77.89
82249;BME280;71851;49.092;18.918;2024-02-26T01:54:27;96334.09;;;6.40;77.97
82249;BME280;71851;49.092;18.918;2024-02-26T01:57:28;96338.56;;;6.32;78.23
82249;BME280;71851;49.092;18.918;2024-02-26T02:00:28;96348.28;;;6.23;79.02
82249;BME280;71851;49.092;18.918;2024-02-26T02:03:30;96346.09;;;6.12;79.48
82249;BME280;71851;49.092;18.918;2024-02-26T02:06:31;96339.34;;;6.03;80.37
82249;BME280;71851;49.092;18.918;2024-02-26T02:09:33;96330.09;;;6.00;80.55
82249;BME280;71851;49.092;18.918;2024-02-26T02:12:33;96341.78;;;6.05;80.38
82249;BME280;71851;49.092;18.918;2024-02-26T02:15:34;96337.06;;;6.00;80.03
82249;BME280;71851;49.092;18.918;2024-02-26T02:18:36;96326.72;;;5.92;79.81
82249;BME280;71851;49.092;18.918;2024-02-26T02:21:36;96332.00;;;5.84;79.74
82249;BME280;71851;49.092;18.918;2024-02-26T02:24:36;96330.06;;;5.78;79.46
82249;BME280;71851;49.092;18.918;2024-02-26T02:27:37;96334.34;;;5.71;79.32
82249;BME280;71851;49.092;18.918;2024-02-26T02:30:40;96332.13;;;5.60;79.85
82249;BME280;71851;49.092;18.918;2024-02-26T02:33:41;96325.22;;;5.52;80.36
82249;BME280;71851;49.092;18.918;2024-02-26T02:36:49;96326.53;;;5.48;80.10
82249;BME280;71851;49.092;18.918;2024-02-26T02:39:52;96324.81;;;5.41;79.96
82249;BME280;71851;49.092;18.918;2024-02-26T02:42:55;96329.88;;;5.34;79.73
82249;BME280;71851;49.092;18.918;2024-02-26T02:45:55;96330.88;;;5.25;80.30
82249;BME280;71851;49.092;18.918;2024-02-26T02:48:56;96335.81;;;5.20;80.10
82249;BME280;71851;49.092;18.918;2024-02-26T02:51:56;96326.03;;;5.22;80.07
82249;BME280;71851;49.092;18.918;2024-02-26T02:54:58;96324.63;;;5.11;79.48
82249;BME280;71851;49.092;18.918;2024-02-26T02:57:58;96322.69;;;5.05;79.32
82249;BME280;71851;49.092;18.918;2024-02-26T03:00:59;96323.84;;;5.11;79.35
82249;BME280;71851;49.092;18.918;2024-02-26T03:04:00;96329.72;;;5.05;79.62
82249;BME280;71851;49.092;18.918;2024-02-26T03:07:01;96310.84;;;5.11;79.45
82249;BME280;71851;49.092;18.918;2024-02-26T03:10:07;96304.53;;;4.97;79.41
82249;BME280;71851;49.092;18.918;2024-02-26T03:13:07;96320.47;;;5.02;79.00
82249;BME280;71851;49.092;18.918;2024-02-26T03:16:08;96318.69;;;5.03;78.48
82249;BME280;71851;49.092;18.918;2024-02-26T03:19:08;96311.63;;;4.81;79.97
82249;BME280;71851;49.092;18.918;2024-02-26T03:22:09;96309.00;;;4.89;79.68
82249;BME280;71851;49.092;18.918;2024-02-26T03:25:09;96315.25;;;5.02;79.44
82249;BME280;71851;49.092;18.918;2024-02-26T03:28:09;96318.22;;;4.91;79.72
82249;BME280;71851;49.092;18.918;2024-02-26T03:31:10;96313.88;;;4.84;79.60
82249;BME280;71851;49.092;18.918;2024-02-26T03:34:11;96306.09;;;4.76;80.45
82249;BME280;71851;49.092;18.918;2024-02-26T03:37:12;96303.19;;;4.79;80.43
82249;BME280;71851;49.092;18.918;2024-02-26T03:40:13;96309.03;;;4.81;80.19
82249;BME280;71851;49.092;18.918;2024-02-26T03:43:16;96301.25;;;4.73;79.42
82249;BME280;71851;49.092;18.918;2024-02-26T03:46:17;96301.09;;;4.74;79.43
82249;BME280;71851;49.092;18.918;2024-02-26T03:49:18;96301.94;;;4.67;79.73
82249;BME280;71851;49.092;18.918;2024-02-26T03:52:19;96290.25;;;4.63;80.09
82249;BME280;71851;49.092;18.918;2024-02-26T03:55:20;96299.84;;;4.62;80.42
82249;BME280;71851;49.092;18.918;2024-02-26T03:58:25;96291.97;;;4.23;80.80
82249;BME280;71851;49.092;18.918;2024-02-26T04:01:25;96297.63;;;4.35;80.29
82249;BME280;71851;49.092;18.918;2024-02-26T04:04:26;96281.75;;;4.30;81.23
82249;BME280;71851;49.092;18.918;2024-02-26T04:07:26;96288.06;;;4.27;80.64
82249;BME280;71851;49.092;18.918;2024-02-26T04:10:27;96291.00;;;4.32;81.58
82249;BME280;71851;49.092;18.918;2024-02-26T04:13:28;96289.19;;;4.33;80.45
82249;BME280;71851;49.092;18.918;2024-02-26T04:16:30;96290.13;;;4.56;81.28
82249;BME280;71851;49.092;18.918;2024-02-26T04:19:31;96286.22;;;4.52;79.29
82249;BME280;71851;49.092;18.918;2024-02-26T04:22:32;96293.19;;;4.60;80.11
82249;BME280;71851;49.092;18.918;2024-02-26T04:25:33;96289.44;;;4.62;79.85
82249;BME280;71851;49.092;18.918;2024-02-26T04:28:34;96286.63;;;4.25;81.02
82249;BME280;71851;49.092;18.918;2024-02-26T04:31:34;96284.47;;;4.45;81.11
82249;BME280;71851;49.092;18.918;2024-02-26T04:34:35;96287.66;;;4.93;77.57
82249;BME280;71851;49.092;18.918;2024-02-26T04:37:35;96279.59;;;4.88;77.19
82249;BME280;71851;49.092;18.918;2024-02-26T04:40:36;96284.31;;;4.85;76.95
82249;BME280;71851;49.092;18.918;2024-02-26T04:43:38;96278.56;;;4.67;77.27
82249;BME280;71851;49.092;18.918;2024-02-26T04:46:41;96270.59;;;4.68;77.23
82249;BME280;71851;49.092;18.918;2024-02-26T04:49:42;96266.41;;;4.51;77.22
82249;BME280;71851;49.092;18.918;2024-02-26T04:52:42;96259.16;;;4.47;77.79
82249;BME280;71851;49.092;18.918;2024-02-26T04:55:43;96251.19;;;4.48;77.58
82249;BME280;71851;49.092;18.918;2024-02-26T04:58:43;96250.25;;;4.33;77.92
82249;BME280;71851;49.092;18.918;2024-02-26T05:01:44;96247.81;;;4.31;78.56
82249;BME280;71851;49.092;18.918;2024-02-26T05:04:44;96251.72;;;4.27;78.72
82249;BME280;71851;49.092;18.918;2024-02-26T05:07:44;96252.22;;;4.23;78.29
82249;BME280;71851;49.092;18.918;2024-02-26T05:10:45;96250.47;;;4.15;78.58
82249;BME280;71851;49.092;18.918;2024-02-26T05:13:47;96255.47;;;4.17;78.64
82249;BME280;71851;49.092;18.918;2024-02-26T05:16:48;96247.38;;;4.20;78.64
82249;BME280;71851;49.092;18.918;2024-02-26T05:19:48;96249.13;;;4.27;78.81
82249;BME280;71851;49.092;18.918;2024-02-26T05:22:49;96252.31;;;4.46;78.56
82249;BME280;71851;49.092;18.918;2024-02-26T05:25:50;96252.97;;;4.40;78.69
82249;BME280;71851;49.092;18.918;2024-02-26T05:28:50;96259.28;;;4.45;78.35
82249;BME280;71851;49.092;18.918;2024-02-26T05:31:51;96249.03;;;4.52;78.03
82249;BME280;71851;49.092;18.918;2024-02-26T05:34:51;96257.28;;;4.63;78.34
82249;BME280;71851;49.092;18.918;2024-02-26T05:37:51;96253.66;;;4.72;77.59
82249;BME280;71851;49.092;18.918;2024-02-26T05:40:52;96256.78;;;4.98;77.32
82249;BME280;71851;49.092;18.918;2024-02-26T05:43:53;96264.75;;;5.19;76.20
82249;BME280;71851;49.092;18.918;2024-02-26T05:46:54;96267.41;;;5.11;76.07
82249;BME280;71851;49.092;18.918;2024-02-26T05:49:54;96277.44;;;5.68;74.56
82249;BME280;71851;49.092;18.918;2024-02-26T05:52:55;96262.91;;;5.96;73.69
82249;BME280;71851;49.092;18.918;2024-02-26T05:55:55;96264.28;;;6.07;72.86
82249;BME280;71851;49.092;18.918;2024-02-26T05:58:56;96277.78;;;6.39;71.90
82249;BME280;71851;49.092;18.918;2024-02-26T06:01:56;96264.81;;;6.60;71.17
82249;BME280;71851;49.092;18.918;2024-02-26T06:04:57;96261.47;;;6.81;70.02
82249;BME280;71851;49.092;18.918;2024-02-26T06:07:59;96272.59;;;6.89;68.89
82249;BME280;71851;49.092;18.918;2024-02-26T06:11:05;96269.78;;;7.06;68.02
82249;BME280;71851;49.092;18.918;2024-02-26T06:14:06;96273.25;;;7.27;67.98
82249;BME280;71851;49.092;18.918;2024-02-26T06:17:07;96274.00;;;7.42;68.12
82249;BME280;71851;49.092;18.918;2024-02-26T06:20:08;96270.13;;;7.38;67.30
82249;BME280;71851;49.092;18.918;2024-02-26T06:23:12;96283.38;;;7.37;67.49
82249;BME280;71851;49.092;18.918;2024-02-26T06:26:13;96274.31;;;7.54;67.34
82249;BME280;71851;49.092;18.918;2024-02-26T06:29:14;96284.88;;;7.67;67.05
82249;BME280;71851;49.092;18.918;2024-02-26T06:32:15;96287.94;;;7.70;67.33
82249;BME280;71851;49.092;18.918;2024-02-26T06:35:15;96287.66;;;7.87;66.85
82249;BME280;71851;49.092;18.918;2024-02-26T06:38:16;96290.59;;;7.77;67.33
82249;BME280;71851;49.092;18.918;2024-02-26T06:41:17;96296.31;;;7.87;67.41
82249;BME280;71851;49.092;18.918;2024-02-26T06:44:18;96302.78;;;7.91;67.61
82249;BME280;71851;49.092;18.918;2024-02-26T06:47:21;96290.97;;;7.74;67.42
82249;BME280;71851;49.092;18.918;2024-02-26T06:50:22;96299.28;;;7.84;66.78
82249;BME280;71851;49.092;18.918;2024-02-26T06:53:22;96310.84;;;7.96;66.77
82249;BME280;71851;49.092;18.918;2024-02-26T06:56:23;96295.66;;;8.06;66.67
82249;BME280;71851;49.092;18.918;2024-02-26T06:59:23;96290.63;;;8.05;66.80
82249;BME280;71851;49.092;18.918;2024-02-26T07:02:26;96282.78;;;8.26;66.20
82249;BME280;71851;49.092;18.918;2024-02-26T07:05:27;96287.34;;;8.45;66.14
82249;BME280;71851;49.092;18.918;2024-02-26T07:08:27;96286.78;;;8.56;65.90
82249;BME280;71851;49.092;18.918;2024-02-26T07:11:31;96288.00;;;8.60;66.64
82249;BME280;71851;49.092;18.918;2024-02-26T07:14:31;96285.22;;;8.62;66.03
82249;BME280;71851;49.092;18.918;2024-02-26T07:17:32;96289.75;;;8.46;65.90
82249;BME280;71851;49.092;18.918;2024-02-26T07:20:34;96294.81;;;8.54;66.00
82249;BME280;71851;49.092;18.918;2024-02-26T07:23:35;96285.84;;;8.64;65.66
82249;BME280;71851;49.092;18.918;2024-02-26T07:26:36;96289.41;;;8.56;66.02
82249;BME280;71851;49.092;18.918;2024-02-26T07:29:36;96295.53;;;8.42;66.63
82249;BME280;71851;49.092;18.918;2024-02-26T07:32:36;96296.66;;;8.05;67.46
82249;BME280;71851;49.092;18.918;2024-02-26T07:35:37;96294.66;;;8.63;66.48
82249;BME280;71851;49.092;18.918;2024-02-26T07:38:38;96292.81;;;8.91;66.10
82249;BME280;71851;49.092;18.918;2024-02-26T07:41:39;96298.16;;;8.76;65.35
82249;BME280;71851;49.092;18.918;2024-02-26T07:44:39;96292.16;;;8.82;65.71
82249;BME280;71851;49.092;18.918;2024-02-26T07:47:44;96295.47;;;8.97;65.38
82249;BME280;71851;49.092;18.918;2024-02-26T07:50:44;96291.41;;;8.95;65.17
82249;BME280;71851;49.092;18.918;2024-02-26T07:53:45;96295.66;;;9.02;65.17
82249;BME280;71851;49.092;18.918;2024-02-26T07:56:47;96293.53;;;8.78;66.28
82249;BME280;71851;49.092;18.918;2024-02-26T07:59:47;96294.59;;;8.84;66.57
82249;BME280;71851;49.092;18.918;2024-02-26T08:02:49;96290.69;;;9.07;65.87
82249;BME280;71851;49.092;18.918;2024-02-26T08:05:51;96288.47;;;8.64;67.10
82249;BME280;71851;49.092;18.918;2024-02-26T08:08:51;96288.00;;;8.94;66.95
82249;BME280;71851;49.092;18.918;2024-02-26T08:11:52;96300.97;;;9.15;66.10
82249;BME280;71851;49.092;18.918;2024-02-26T08:14:52;96299.03;;;9.37;65.32
82249;BME280;71851;49.092;18.918;2024-02-26T08:17:54;96304.25;;;9.37;66.09
82249;BME280;71851;49.092;18.918;2024-02-26T08:20:54;96303.25;;;9.38;66.10
82249;BME280;71851;49.092;18.918;2024-02-26T08:23:55;96304.38;;;9.16;66.42
82249;BME280;71851;49.092;18.918;2024-02-26T08:26:55;96309.13;;;9.47;65.90
82249;BME280;71851;49.092;18.918;2024-02-26T08:29:56;96304.31;;;9.57;65.34
82249;BME280;71851;49.092;18.918;2024-02-26T08:32:56;96302.34;;;9.72;65.02
82249;BME280;71851;49.092;18.918;2024-02-26T08:35:57;96301.72;;;9.76;64.55
82249;BME280;71851;49.092;18.918;2024-02-26T08:38:58;96298.91;;;9.84;63.89
82249;BME280;71851;49.092;18.918;2024-02-26T08:41:59;96301.34;;;9.86;64.46
82249;BME280;71851;49.092;18.918;2024-02-26T08:45:00;96317.28;;;9.91;64.36
82249;BME280;71851;49.092;18.918;2024-02-26T08:48:01;96310.44;;;10.03;64.72
82249;BME280;71851;49.092;18.918;2024-02-26T08:51:08;96313.25;;;10.01;64.27
82249;BME280;71851;49.092;18.918;2024-02-26T08:54:09;96306.66;;;10.12;64.03
82249;BME280;71851;49.092;18.918;2024-02-26T08:57:10;96301.81;;;10.22;63.81
82249;BME280;71851;49.092;18.918;2024-02-26T09:00:10;96308.00;;;9.95;64.88
82249;BME280;71851;49.092;18.918;2024-02-26T09:03:11;96303.78;;;10.07;64.85
82249;BME280;71851;49.092;18.918;2024-02-26T09:06:14;96294.34;;;10.19;64.62
82249;BME280;71851;49.092;18.918;2024-02-26T09:09:15;96293.91;;;10.28;64.42
82249;BME280;71851;49.092;18.918;2024-02-26T09:12:15;96294.31;;;10.32;64.06
82249;BME280;71851;49.092;18.918;2024-02-26T09:15:18;96293.50;;;10.51;63.97
82249;BME280;71851;49.092;18.918;2024-02-26T09:18:18;96290.06;;;10.64;63.23
82249;BME280;71851;49.092;18.918;2024-02-26T09:21:18;96299.50;;;10.78;62.98
82249;BME280;71851;49.092;18.918;2024-02-26T09:24:24;96296.06;;;10.77;62.96
82249;BME280;71851;49.092;18.918;2024-02-26T09:27:25;96297.19;;;11.01;62.72
82249;BME280;71851;49.092;18.918;2024-02-26T09:30:25;96298.03;;;10.95;63.24
82249;BME280;71851;49.092;18.918;2024-02-26T09:33:26;96294.13;;;11.17;62.18
82249;BME280;71851;49.092;18.918;2024-02-26T09:36:26;96291.09;;;11.20;61.92
82249;BME280;71851;49.092;18.918;2024-02-26T09:39:27;96294.63;;;11.39;61.92
82249;BME280;71851;49.092;18.918;2024-02-26T09:42:30;96293.50;;;11.59;60.93
82249;BME280;71851;49.092;18.918;2024-02-26T09:45:32;96297.09;;;11.71;61.21
82249;BME280;71851;49.092;18.918;2024-02-26T09:48:34;96301.97;;;11.68;61.27
82249;BME280;71851;49.092;18.918;2024-02-26T09:51:36;96297.47;;;11.75;61.60
82249;BME280;71851;49.092;18.918;2024-02-26T09:54:37;96287.53;;;11.83;61.36
82249;BME280;71851;49.092;18.918;2024-02-26T09:57:43;96284.06;;;12.14;60.55
82249;BME280;71851;49.092;18.918;2024-02-26T10:00:49;96281.97;;;12.65;59.42
82249;BME280;71851;49.092;18.918;2024-02-26T10:03:55;96280.88;;;12.91;58.43
82249;BME280;71851;49.092;18.918;2024-02-26T10:06:57;96289.84;;;12.47;60.65
82249;BME280;71851;49.092;18.918;2024-02-26T10:10:00;96295.63;;;12.56;61.05
82249;BME280;71851;49.092;18.918;2024-02-26T10:13:01;96291.34;;;12.37;61.90
82249;BME280;71851;49.092;18.918;2024-02-26T10:16:02;96290.78;;;12.53;61.80
82249;BME280;71851;49.092;18.918;2024-02-26T10:19:04;96293.72;;;12.63;62.06
82249;BME280;71851;49.092;18.918;2024-02-26T10:22:04;96298.41;;;12.61;62.31
82249;BME280;71851;49.092;18.918;2024-02-26T10:25:05;96291.25;;;12.50;62.82
82249;BME280;71851;49.092;18.918;2024-02-26T10:28:06;96290.88;;;12.46;63.62
82249;BME280;71851;49.092;18.918;2024-02-26T10:31:08;96294.38;;;12.40;63.69
82249;BME280;71851;49.092;18.918;2024-02-26T10:34:08;96297.91;;;12.28;64.44
82249;BME280;71851;49.092;18.918;2024-02-26T10:37:09;96306.41;;;11.98;65.71
82249;BME280;71851;49.092;18.918;2024-02-26T10:40:10;96302.19;;;11.98;66.11
82249;BME280;71851;49.092;18.918;2024-02-26T10:43:11;96294.44;;;12.03;67.09
82249;BME280;71851;49.092;18.918;2024-02-26T10:46:14;96301.94;;;12.06;66.56
82249;BME280;71851;49.092;18.918;2024-02-26T10:49:15;96293.50;;;12.46;65.72
82249;BME280;71851;49.092;18.918;2024-02-26T10:52:20;96299.28;;;12.55;65.09
82249;BME280;71851;49.092;18.918;2024-02-26T10:55:22;96291.34;;;12.79;64.05
82249;BME280;71851;49.092;18.918;2024-02-26T10:58:22;96284.91;;;12.75;63.99
82249;BME280;71851;49.092;18.918;2024-02-26T11:01:27;96287.44;;;12.21;65.25
82249;BME280;71851;49.092;18.918;2024-02-26T11:04:30;96280.69;;;12.74;64.77
82249;BME280;71851;49.092;18.918;2024-02-26T11:07:30;96277.16;;;12.62;65.53
82249;BME280;71851;49.092;18.918;2024-02-26T11:10:32;96271.88;;;12.99;63.95
82249;BME280;71851;49.092;18.918;2024-02-26T11:13:33;96269.72;;;13.73;63.29
82249;BME280;71851;49.092;18.918;2024-02-26T11:16:35;96263.53;;;14.09;60.29
82249;BME280;71851;49.092;18.918;2024-02-26T11:19:38;96259.59;;;14.11;59.10
82249;BME280;71851;49.092;18.918;2024-02-26T11:22:38;96249.78;;;14.41;58.98
82249;BME280;71851;49.092;18.918;2024-02-26T11:25:39;96241.97;;;14.70;57.94
82249;BME280;71851;49.092;18.918;2024-02-26T11:28:40;96241.75;;;14.60;58.41
82249;BME280;71851;49.092;18.918;2024-02-26T11:31:42;96241.13;;;14.23;59.60
82249;BME280;71851;49.092;18.918;2024-02-26T11:34:43;96243.31;;;14.03;60.46
82249;BME280;71851;49.092;18.918;2024-02-26T11:37:55;96253.25;;;13.89;61.87
82249;BME280;71851;49.092;18.918;2024-02-26T11:40:58;96249.94;;;13.82;61.73
82249;BME280;71851;49.092;18.918;2024-02-26T11:44:00;96246.91;;;13.67;61.82
82249;BME280;71851;49.092;18.918;2024-02-26T11:47:18;96251.69;;;13.58;62.90
82249;BME280;71851;49.092;18.918;2024-02-26T11:50:35;96257.81;;;13.41;63.36
82249;BME280;71851;49.092;18.918;2024-02-26T11:53:45;96252.03;;;13.50;63.09
82249;BME280;71851;49.092;18.918;2024-02-26T11:56:46;96250.09;;;13.69;63.04
82249;BME280;71851;49.092;18.918;2024-02-26T11:59:48;96249.13;;;13.82;62.75
82249;BME280;71851;49.092;18.918;2024-02-26T12:02:50;96244.56;;;14.00;62.28
82249;BME280;71851;49.092;18.918;2024-02-26T12:05:58;96249.03;;;13.88;62.68
82249;BME280;71851;49.092;18.918;2024-02-26T12:08:58;96247.78;;;13.91;62.73
82249;BME280;71851;49.092;18.918;2024-02-26T12:12:01;96244.41;;;13.84;62.92
82249;BME280;71851;49.092;18.918;2024-02-26T12:15:02;96244.31;;;13.79;63.85
82249;BME280;71851;49.092;18.918;2024-02-26T12:18:04;96250.00;;;13.64;64.43
82249;BME280;71851;49.092;18.918;2024-02-26T12:21:05;96253.19;;;13.54;65.06
82249;BME280;71851;49.092;18.918;2024-02-26T12:24:13;96250.28;;;13.44;65.84
82249;BME280;71851;49.092;18.918;2024-02-26T12:27:14;96252.41;;;13.36;65.73
82249;BME280;71851;49.092;18.918;2024-02-26T12:30:17;96240.91;;;13.48;65.43
82249;BME280;71851;49.092;18.918;2024-02-26T12:33:18;96243.84;;;13.40;65.53
82249;BME280;71851;49.092;18.918;2024-02-26T12:36:19;96253.69;;;13.45;65.62
82249;BME280;71851;49.092;18.918;2024-02-26T12:39:19;96253.34;;;13.41;65.66
82249;BME280;71851;49.092;18.918;2024-02-26T12:42:21;96246.25;;;13.42;65.28
82249;BME280;71851;49.092;18.918;2024-02-26T12:45:22;96253.56;;;13.40;65.72
82249;BME280;71851;49.092;18.918;2024-02-26T12:48:22;96263.34;;;13.51;65.43
82249;BME280;71851;49.092;18.918;2024-02-26T12:51:23;96264.50;;;13.55;65.21
82249;BME280;71851;49.092;18.918;2024-02-26T12:54:24;96269.16;;;13.41;65.61
82249;BME280;71851;49.092;18.918;2024-02-26T12:57:25;96264.25;;;13.45;65.38
82249;BME280;71851;49.092;18.918;2024-02-26T13:00:27;96265.34;;;13.37;65.59
82249;BME280;71851;49.092;18.918;2024-02-26T13:03:34;96263.72;;;13.54;65.84
82249;BME280;71851;49.092;18.918;2024-02-26T13:06:36;96267.94;;;13.55;65.11
82249;BME280;71851;49.092;18.918;2024-02-26T13:09:36;96266.25;;;13.61;65.39
82249;BME280;71851;49.092;18.918;2024-02-26T13:12:47;96275.44;;;13.58;65.60
82249;BME280;71851;49.092;18.918;2024-02-26T13:16:01;96274.00;;;13.44;65.95
82249;BME280;71851;49.092;18.918;2024-02-26T13:19:09;96274.78;;;13.45;66.47
82249;BME280;71851;49.092;18.918;2024-02-26T13:22:10;96273.03;;;13.39;66.43
82249;BME280;71851;49.092;18.918;2024-02-26T13:25:10;96276.41;;;13.46;66.67
82249;BME280;71851;49.092;18.918;2024-02-26T13:28:15;96273.63;;;13.71;65.95
82249;BME280;71851;49.092;18.918;2024-02-26T13:31:19;96269.72;;;13.73;65.66
82249;BME280;71851;49.092;18.918;2024-02-26T13:34:27;96280.84;;;13.75;65.97
82249;BME280;71851;49.092;18.918;2024-02-26T13:37:27;96278.28;;;13.87;66.09
82249;BME280;71851;49.092;18.918;2024-02-26T13:40:28;96283.16;;;13.72;65.81
82249;BME280;71851;49.092;18.918;2024-02-26T13:43:29;96281.22;;;13.79;66.65
82249;BME280;71851;49.092;18.918;2024-02-26T13:46:29;96283.34;;;14.00;65.52
82249;BME280;71851;49.092;18.918;2024-02-26T13:49:30;96290.13;;;14.07;65.47
82249;BME280;71851;49.092;18.918;2024-02-26T13:52:30;96284.34;;;14.28;65.96
82249;BME280;71851;49.092;18.918;2024-02-26T13:55:33;96284.44;;;14.45;64.12
82249;BME280;71851;49.092;18.918;2024-02-26T13:58:34;96292.59;;;14.43;63.90
82249;BME280;71851;49.092;18.918;2024-02-26T14:01:34;96286.31;;;14.44;63.63
82249;BME280;71851;49.092;18.918;2024-02-26T14:04:36;96296.13;;;14.26;63.84
82249;BME280;71851;49.092;18.918;2024-02-26T14:07:36;96281.00;;;14.33;64.70
82249;BME280;71851;49.092;18.918;2024-02-26T14:10:37;96291.84;;;14.25;65.00
82249;BME280;71851;49.092;18.918;2024-02-26T14:13:38;96292.91;;;14.24;66.01
82249;BME280;71851;49.092;18.918;2024-02-26T14:16:38;96295.13;;;14.38;64.72
82249;BME280;71851;49.092;18.918;2024-02-26T14:19:38;96293.19;;;14.34;65.18
82249;BME280;71851;49.092;18.918;2024-02-26T14:22:40;96299.56;;;14.26;63.82
82249;BME280;71851;49.092;18.918;2024-02-26T14:25:41;96284.97;;;14.12;65.97
82249;BME280;71851;49.092;18.918;2024-02-26T14:28:41;96299.97;;;14.00;64.82
82249;BME280;71851;49.092;18.918;2024-02-26T14:31:42;96298.59;;;13.98;64.85
82249;BME280;71851;49.092;18.918;2024-02-26T14:34:43;96297.72;;;13.74;65.96
82249;BME280;71851;49.092;18.918;2024-02-26T14:37:45;96294.03;;;13.75;65.57
82249;BME280;71851;49.092;18.918;2024-02-26T14:40:50;96307.66;;;13.60;66.46
82249;BME280;71851;49.092;18.918;2024-02-26T14:43:51;96291.59;;;13.62;66.18
82249;BME280;71851;49.092;18.918;2024-02-26T14:46:52;96292.41;;;13.62;66.26
82249;BME280;71851;49.092;18.918;2024-02-26T14:49:52;96293.91;;;13.70;65.23
82249;BME280;71851;49.092;18.918;2024-02-26T14:52:53;96289.38;;;13.59;66.55
82249;BME280;71851;49.092;18.918;2024-02-26T14:55:53;96291.59;;;13.62;66.03
82249;BME280;71851;49.092;18.918;2024-02-26T14:58:54;96286.28;;;13.92;65.00
82249;BME280;71851;49.092;18.918;2024-02-26T15:01:54;96288.97;;;14.03;64.76
82249;BME280;71851;49.092;18.918;2024-02-26T15:04:55;96293.47;;;13.73;65.63
82249;BME280;71851;49.092;18.918;2024-02-26T15:07:55;96278.38;;;13.80;65.47
82249;BME280;71851;49.092;18.918;2024-02-26T15:10:56;96292.47;;;13.26;67.82
82249;BME280;71851;49.092;18.918;2024-02-26T15:13:57;96286.97;;;13.28;67.65
82249;BME280;71851;49.092;18.918;2024-02-26T15:16:57;96280.16;;;13.68;66.35
82249;BME280;71851;49.092;18.918;2024-02-26T15:19:58;96282.06;;;13.61;66.37
82249;BME280;71851;49.092;18.918;2024-02-26T15:23:00;96283.88;;;13.79;66.30
82249;BME280;71851;49.092;18.918;2024-02-26T15:26:01;96285.41;;;13.98;65.74
82249;BME280;71851;49.092;18.918;2024-02-26T15:29:01;96281.34;;;13.84;66.10
82249;BME280;71851;49.092;18.918;2024-02-26T15:32:02;96292.34;;;13.81;66.83
82249;BME280;71851;49.092;18.918;2024-02-26T15:35:02;96290.75;;;13.91;66.64
82249;BME280;71851;49.092;18.918;2024-02-26T15:38:03;96293.06;;;13.88;66.23
82249;BME280;71851;49.092;18.918;2024-02-26T15:41:10;96289.03;;;13.85;66.97
82249;BME280;71851;49.092;18.918;2024-02-26T15:44:11;96298.22;;;13.83;66.62
82249;BME280;71851;49.092;18.918;2024-02-26T15:47:12;96301.34;;;13.61;67.22
82249;BME280;71851;49.092;18.918;2024-02-26T15:50:13;96302.69;;;13.52;67.40
82249;BME280;71851;49.092;18.918;2024-02-26T15:53:13;96306.94;;;13.65;67.07
82249;BME280;71851;49.092;18.918;2024-02-26T15:56:15;96309.31;;;13.55;67.29